createdAt,value
2017-09-20T00:00:46.913Z,2.03
2017-09-20T00:03:14.474Z,1.83
2017-09-20T00:05:42.046Z,2.47
2017-09-20T00:08:10.410Z,3.00
2017-09-20T00:10:38.880Z,1.67
2017-09-20T00:13:06.440Z,1.97
2017-09-20T00:15:34.076Z,1.53
2017-09-20T00:18:01.672Z,2.00
2017-09-20T00:20:29.223Z,2.03
2017-09-20T00:22:56.812Z,2.13
2017-09-20T00:25:25.247Z,1.90
2017-09-20T00:27:52.810Z,2.20
2017-09-20T00:30:20.384Z,2.30
2017-09-20T00:32:47.966Z,2.33
2017-09-20T00:35:16.300Z,2.20
2017-09-20T00:37:44.003Z,2.20
2017-09-20T00:40:12.328Z,2.60
2017-09-20T00:42:39.887Z,2.27
2017-09-20T00:45:07.472Z,2.83
2017-09-20T00:47:36.539Z,2.27
2017-09-20T00:50:04.127Z,2.07
2017-09-20T00:52:31.687Z,2.53
2017-09-20T00:54:59.243Z,2.50
2017-09-20T00:57:26.905Z,2.70
2017-09-20T00:59:54.463Z,2.73
2017-09-20T01:02:22.068Z,2.80
2017-09-20T01:04:49.633Z,2.73
2017-09-20T01:07:17.234Z,2.90
2017-09-20T01:09:44.819Z,2.70
2017-09-20T01:12:13.147Z,2.97
2017-09-20T01:14:40.743Z,2.63
2017-09-20T01:17:09.072Z,2.70
2017-09-20T01:19:36.643Z,3.17
2017-09-20T01:22:16.018Z,3.43
2017-09-20T01:24:44.356Z,3.43
2017-09-20T01:27:11.986Z,3.90
2017-09-20T01:29:39.555Z,3.03
2017-09-20T01:32:07.211Z,3.17
2017-09-20T01:34:34.774Z,3.23
2017-09-20T01:37:02.439Z,3.27
2017-09-20T01:39:30.015Z,3.40
2017-09-20T01:41:57.600Z,3.70
2017-09-20T01:44:25.960Z,3.63
2017-09-20T01:46:53.522Z,3.43
2017-09-20T01:49:21.123Z,3.20
2017-09-20T01:51:48.707Z,3.17
2017-09-20T01:54:16.268Z,3.80
2017-09-20T01:56:43.944Z,3.40
2017-09-20T01:59:11.503Z,3.57
2017-09-20T02:01:39.214Z,3.20
2017-09-20T02:04:06.908Z,4.00
2017-09-20T02:06:34.471Z,3.60
2017-09-20T02:09:02.051Z,3.30
2017-09-20T02:11:29.611Z,3.47
2017-09-20T02:13:57.190Z,3.80
2017-09-20T02:16:25.535Z,4.20
2017-09-20T02:18:53.122Z,4.50
2017-09-20T02:21:20.675Z,3.67
2017-09-20T02:23:49.798Z,4.20
2017-09-20T02:26:17.368Z,4.37
2017-09-20T02:28:44.928Z,3.83
2017-09-20T02:31:12.542Z,4.60
2017-09-20T02:33:40.106Z,3.80
2017-09-20T02:36:07.662Z,4.10
2017-09-20T02:38:35.247Z,4.30
2017-09-20T02:41:02.830Z,4.60
2017-09-20T02:43:30.418Z,4.97
2017-09-20T02:45:57.984Z,5.00
2017-09-20T02:48:25.587Z,5.40
2017-09-20T02:50:53.158Z,4.63
2017-09-20T02:53:20.718Z,4.50
2017-09-20T02:55:48.307Z,5.43
2017-09-20T02:58:15.867Z,4.90
2017-09-20T03:00:43.480Z,5.60
2017-09-20T03:03:11.039Z,4.80
2017-09-20T03:05:38.609Z,5.80
2017-09-20T03:08:06.198Z,5.33
2017-09-20T03:10:33.768Z,4.90
2017-09-20T03:13:01.360Z,5.23
2017-09-20T03:15:29.705Z,5.97
2017-09-20T03:17:57.307Z,6.27
2017-09-20T03:20:24.900Z,5.03
2017-09-20T03:22:52.501Z,5.53
2017-09-20T03:25:20.857Z,5.63
2017-09-20T03:27:48.589Z,5.43
2017-09-20T03:30:16.280Z,5.60
2017-09-20T03:32:43.852Z,5.17
2017-09-20T03:35:11.452Z,5.43
2017-09-20T03:37:39.016Z,5.93
2017-09-20T03:40:06.611Z,6.17
2017-09-20T03:42:34.175Z,4.80
2017-09-20T03:45:01.739Z,6.20
2017-09-20T03:47:30.280Z,6.73
2017-09-20T03:49:58.060Z,5.07
2017-09-20T03:52:25.619Z,6.23
2017-09-20T03:54:53.207Z,6.60
2017-09-20T03:57:20.784Z,6.80
2017-09-20T03:59:49.148Z,7.57
2017-09-20T04:02:17.492Z,7.23
2017-09-20T04:04:45.132Z,7.10
2017-09-20T04:07:12.695Z,7.60
2017-09-20T04:09:40.253Z,6.77
2017-09-20T04:12:07.900Z,7.57
2017-09-20T04:14:35.479Z,9.50
2017-09-20T04:17:03.050Z,9.80
2017-09-20T04:19:30.647Z,9.67
2017-09-20T04:21:58.990Z,9.63
2017-09-20T04:24:26.671Z,9.97
2017-09-20T04:26:54.268Z,10.00
2017-09-20T04:29:21.884Z,9.60
2017-09-20T04:31:49.502Z,9.83
2017-09-20T04:34:17.083Z,10.17
2017-09-20T04:36:44.767Z,11.50
2017-09-20T04:39:13.851Z,11.43
2017-09-20T04:41:41.465Z,10.83
2017-09-20T04:44:09.027Z,10.70
2017-09-20T04:46:36.599Z,10.73
2017-09-20T04:49:04.248Z,10.20
2017-09-20T04:51:31.849Z,11.50
2017-09-20T04:53:59.420Z,11.20
2017-09-20T04:56:27.865Z,10.93
2017-09-20T04:58:55.452Z,10.70
2017-09-20T05:01:23.029Z,12.60
2017-09-20T05:03:51.395Z,11.27
2017-09-20T05:06:19.023Z,12.43
2017-09-20T05:08:46.736Z,11.80
2017-09-20T05:11:15.069Z,11.20
2017-09-20T05:13:42.647Z,11.07
2017-09-20T05:16:10.290Z,10.70
2017-09-20T05:18:37.867Z,11.37
2017-09-20T05:21:06.967Z,10.03
2017-09-20T05:23:35.316Z,11.73
2017-09-20T05:26:02.943Z,10.87
2017-09-20T05:28:30.547Z,11.17
2017-09-20T05:30:58.896Z,10.67
2017-09-20T05:33:26.485Z,11.37
2017-09-20T05:35:54.055Z,11.00
2017-09-20T05:38:21.665Z,10.30
2017-09-20T05:40:49.237Z,11.87
2017-09-20T05:43:16.815Z,10.57
2017-09-20T05:45:44.443Z,11.40
2017-09-20T05:48:12.025Z,10.93
2017-09-20T05:50:39.603Z,10.77
2017-09-20T05:53:07.356Z,11.93
2017-09-20T05:55:34.944Z,11.27
2017-09-20T05:58:03.329Z,11.90
2017-09-20T06:00:31.668Z,11.67
2017-09-20T06:02:59.247Z,11.10
2017-09-20T06:05:27.619Z,12.00
2017-09-20T06:07:55.206Z,11.63
2017-09-20T06:10:22.849Z,12.40
2017-09-20T06:12:51.203Z,10.23
2017-09-20T06:15:18.774Z,12.63
2017-09-20T06:17:46.372Z,12.10
2017-09-20T06:20:13.943Z,13.00
2017-09-20T06:22:41.536Z,11.17
2017-09-20T06:25:09.107Z,12.97
2017-09-20T06:27:37.487Z,12.23
2017-09-20T06:30:05.067Z,11.90
2017-09-20T06:32:32.643Z,11.23
2017-09-20T06:35:00.245Z,10.60
2017-09-20T06:37:27.853Z,11.37
2017-09-20T06:39:55.452Z,11.43
2017-09-20T06:42:23.049Z,12.57
2017-09-20T06:44:51.445Z,11.40
2017-09-20T06:47:19.012Z,11.43
2017-09-20T06:49:46.699Z,11.03
2017-09-20T06:52:14.291Z,9.50
2017-09-20T06:54:43.364Z,8.87
2017-09-20T06:57:10.971Z,9.40
2017-09-20T06:59:38.541Z,10.03
2017-09-20T07:02:06.112Z,11.57
2017-09-20T07:04:33.707Z,10.37
2017-09-20T07:07:01.275Z,9.10
2017-09-20T07:09:29.643Z,10.57
2017-09-20T07:11:57.211Z,10.70
2017-09-20T07:14:26.315Z,10.37
2017-09-20T07:16:54.647Z,10.13
2017-09-20T07:19:22.207Z,9.50
2017-09-20T07:21:49.907Z,9.87
2017-09-20T07:24:18.259Z,9.23
2017-09-20T07:26:45.869Z,9.10
2017-09-20T07:29:14.198Z,7.67
2017-09-20T07:31:41.790Z,8.30
2017-09-20T07:34:10.127Z,10.13
2017-09-20T07:36:37.711Z,12.03
2017-09-20T07:39:05.300Z,34.67
2017-09-20T07:41:32.988Z,15.27
2017-09-20T07:44:00.585Z,11.77
2017-09-20T07:46:28.163Z,10.90
2017-09-20T07:48:56.527Z,9.97
2017-09-20T07:51:24.100Z,12.27
2017-09-20T07:53:52.436Z,11.73
2017-09-20T07:56:20.031Z,11.50
2017-09-20T07:58:48.359Z,11.83
2017-09-20T08:01:15.956Z,10.87
2017-09-20T08:03:44.283Z,10.80
2017-09-20T08:06:11.847Z,12.37
2017-09-20T08:08:39.447Z,12.50
2017-09-20T08:11:07.014Z,14.53
2017-09-20T08:13:34.608Z,13.17
2017-09-20T08:16:02.189Z,21.23
2017-09-20T08:18:29.743Z,12.90
2017-09-20T08:20:57.343Z,13.23
2017-09-20T08:23:25.674Z,14.90
2017-09-20T08:25:53.292Z,13.10
2017-09-20T08:28:21.627Z,12.07
2017-09-20T08:30:49.206Z,11.03
2017-09-20T08:33:16.799Z,12.07
2017-09-20T08:35:44.372Z,14.70
2017-09-20T08:38:11.954Z,14.17
2017-09-20T08:40:39.731Z,13.37
2017-09-20T08:43:07.310Z,13.40
2017-09-20T08:45:34.979Z,15.03
2017-09-20T08:48:02.553Z,12.53
2017-09-20T08:50:30.912Z,13.37
2017-09-20T08:52:58.472Z,13.50
2017-09-20T08:55:26.828Z,13.30
2017-09-20T08:57:54.423Z,13.67
2017-09-20T09:00:22.758Z,12.23
2017-09-20T09:02:50.355Z,12.33
2017-09-20T09:05:18.828Z,13.03
2017-09-20T09:07:47.313Z,12.33
2017-09-20T09:10:15.719Z,10.97
2017-09-20T09:12:43.320Z,12.50
2017-09-20T09:15:11.007Z,11.50
2017-09-20T09:17:39.348Z,11.87
2017-09-20T09:20:06.960Z,12.33
2017-09-20T09:22:34.664Z,12.63
2017-09-20T09:25:02.223Z,11.30
2017-09-20T09:27:29.838Z,11.97
2017-09-20T09:29:58.176Z,11.87
2017-09-20T09:32:25.761Z,11.47
2017-09-20T09:34:54.099Z,11.97
2017-09-20T09:37:21.700Z,11.73
2017-09-20T09:39:50.039Z,11.70
2017-09-20T09:42:17.643Z,10.53
2017-09-20T09:44:45.247Z,11.67
2017-09-20T09:47:12.823Z,15.77
2017-09-20T09:49:40.430Z,10.80
2017-09-20T09:52:08.003Z,12.33
2017-09-20T09:54:35.568Z,11.33
2017-09-20T09:57:03.151Z,10.40
2017-09-20T09:59:30.797Z,12.30
2017-09-20T10:01:58.387Z,11.00
2017-09-20T10:04:25.968Z,10.73
2017-09-20T10:06:54.371Z,9.27
2017-09-20T10:09:21.987Z,10.50
2017-09-20T10:11:49.555Z,10.33
2017-09-20T10:14:18.015Z,9.67
2017-09-20T10:16:45.760Z,10.13
2017-09-20T10:19:13.393Z,10.73
2017-09-20T10:21:40.987Z,11.27
2017-09-20T10:24:08.571Z,10.97
2017-09-20T10:26:36.927Z,9.77
2017-09-20T10:29:05.995Z,9.63
2017-09-20T10:31:33.599Z,11.23
2017-09-20T10:34:01.947Z,9.90
2017-09-20T10:36:29.573Z,8.90
2017-09-20T10:38:57.148Z,9.40
2017-09-20T10:41:24.708Z,8.37
2017-09-20T10:43:52.308Z,8.60
2017-09-20T10:46:20.646Z,8.27
2017-09-20T10:48:48.215Z,9.67
2017-09-20T10:51:16.137Z,9.10
2017-09-20T10:53:43.706Z,10.17
2017-09-20T10:56:11.272Z,11.70
2017-09-20T10:58:38.883Z,10.00
2017-09-20T11:01:07.232Z,10.10
2017-09-20T11:03:34.830Z,10.23
2017-09-20T11:06:03.347Z,7.90
2017-09-20T11:08:31.007Z,8.07
2017-09-20T11:10:58.607Z,8.20
2017-09-20T11:13:26.995Z,27.93
2017-09-20T11:15:54.563Z,49.50
2017-09-20T11:18:22.224Z,12.13
2017-09-20T11:20:50.563Z,6.97
2017-09-20T11:23:18.194Z,8.33
2017-09-20T11:25:45.784Z,7.57
2017-09-20T11:28:13.435Z,8.00
2017-09-20T11:30:41.065Z,8.97
2017-09-20T11:33:08.706Z,9.47
2017-09-20T11:35:37.090Z,7.90
2017-09-20T11:38:05.555Z,9.10
2017-09-20T11:40:34.024Z,8.40
2017-09-20T11:43:01.588Z,7.73
2017-09-20T11:45:29.148Z,6.70
2017-09-20T11:47:56.741Z,7.10
2017-09-20T11:50:24.309Z,7.27
2017-09-20T11:52:51.927Z,7.80
2017-09-20T11:55:19.590Z,8.37
2017-09-20T11:57:47.955Z,7.47
2017-09-20T12:00:16.275Z,7.57
2017-09-20T12:02:43.910Z,7.50
2017-09-20T12:05:12.277Z,7.47
2017-09-20T12:07:39.867Z,7.57
2017-09-20T12:10:07.469Z,7.40
2017-09-20T12:12:35.052Z,7.10
2017-09-20T12:15:02.620Z,6.90
2017-09-20T12:17:30.975Z,7.00
2017-09-20T12:19:58.539Z,7.10
2017-09-20T12:22:26.097Z,7.80
2017-09-20T12:24:53.695Z,7.73
2017-09-20T12:27:21.257Z,7.27
2017-09-20T12:29:48.822Z,6.90
2017-09-20T12:32:16.516Z,7.43
2017-09-20T12:34:44.091Z,6.90
2017-09-20T12:37:11.689Z,8.70
2017-09-20T12:39:39.259Z,7.37
2017-09-20T12:42:06.845Z,8.50
2017-09-20T12:44:34.437Z,7.70
2017-09-20T12:47:02.913Z,8.73
2017-09-20T12:49:30.521Z,9.00
2017-09-20T12:51:58.092Z,7.37
2017-09-20T12:54:25.679Z,7.50
2017-09-20T12:56:53.238Z,8.57
2017-09-20T12:59:20.888Z,9.53
2017-09-20T13:01:48.551Z,9.07
2017-09-20T13:04:17.060Z,7.67
2017-09-20T13:06:45.452Z,9.40
2017-09-20T13:09:13.023Z,9.73
2017-09-20T13:11:40.623Z,20.17
2017-09-20T13:14:08.199Z,19.87
2017-09-20T13:16:35.801Z,21.80
2017-09-20T13:19:03.439Z,14.37
2017-09-20T13:21:31.790Z,14.40
2017-09-20T13:23:59.364Z,12.30
2017-09-20T13:26:27.724Z,11.93
2017-09-20T13:28:55.316Z,12.20
2017-09-20T13:31:23.652Z,12.00
2017-09-20T13:33:51.383Z,12.47
2017-09-20T13:36:19.135Z,12.33
2017-09-20T13:38:46.699Z,11.07
2017-09-20T13:41:14.300Z,11.20
2017-09-20T13:43:41.888Z,11.60
2017-09-20T13:46:10.250Z,12.30
2017-09-20T13:48:37.908Z,11.53
2017-09-20T13:51:05.628Z,12.13
2017-09-20T13:53:33.262Z,12.90
2017-09-20T13:56:00.962Z,13.33
2017-09-20T13:58:28.551Z,10.93
2017-09-20T14:00:56.115Z,13.37
2017-09-20T14:03:24.502Z,11.60
2017-09-20T14:05:52.088Z,10.13
2017-09-20T14:08:19.699Z,9.27
2017-09-20T14:10:47.256Z,9.10
2017-09-20T14:13:14.808Z,8.57
2017-09-20T14:15:42.531Z,11.07
2017-09-20T14:18:10.108Z,10.70
2017-09-20T14:20:37.864Z,11.33
2017-09-20T14:23:05.443Z,10.50
2017-09-20T14:25:33.019Z,10.17
2017-09-20T14:28:00.621Z,10.30
2017-09-20T14:30:28.207Z,10.23
2017-09-20T14:32:55.791Z,6.47
2017-09-20T14:35:23.393Z,6.03
2017-09-20T14:37:50.947Z,6.67
2017-09-20T14:40:18.508Z,5.90
2017-09-20T14:42:46.115Z,5.00
2017-09-20T14:45:13.691Z,5.77
2017-09-20T14:47:41.287Z,7.60
2017-09-20T14:50:08.856Z,8.83
2017-09-20T14:52:36.415Z,8.63
2017-09-20T14:55:04.011Z,9.70
2017-09-20T14:57:33.091Z,10.87
2017-09-20T15:00:00.719Z,9.50
2017-09-20T15:02:28.295Z,9.03
2017-09-20T15:04:55.925Z,9.63
2017-09-20T15:07:23.498Z,9.77
2017-09-20T15:09:51.111Z,9.90
2017-09-20T15:12:18.770Z,10.10
2017-09-20T15:14:46.447Z,10.60
2017-09-20T15:17:14.787Z,8.80
2017-09-20T15:19:42.357Z,7.60
2017-09-20T15:22:10.730Z,7.13
2017-09-20T15:24:38.335Z,7.77
2017-09-20T15:27:05.896Z,7.50
2017-09-20T15:29:33.568Z,7.60
2017-09-20T15:32:01.135Z,8.27
2017-09-20T15:34:28.732Z,8.03
2017-09-20T15:36:56.305Z,7.37
2017-09-20T15:39:24.679Z,7.27
2017-09-20T15:41:52.244Z,7.90
2017-09-20T15:44:20.596Z,9.00
2017-09-20T15:46:48.200Z,8.00
2017-09-20T15:49:15.785Z,8.47
2017-09-20T15:51:44.415Z,7.50
2017-09-20T15:54:11.987Z,7.03
2017-09-20T15:56:40.414Z,8.00
2017-09-20T15:59:08.012Z,8.70
2017-09-20T16:01:35.575Z,8.43
2017-09-20T16:04:03.928Z,9.00
2017-09-20T16:06:31.523Z,9.50
2017-09-20T16:08:59.919Z,9.27
2017-09-20T16:11:27.521Z,9.40
2017-09-20T16:13:55.085Z,9.60
2017-09-20T16:16:22.732Z,11.30
2017-09-20T16:18:50.303Z,9.50
2017-09-20T16:21:18.667Z,10.03
2017-09-20T16:23:46.243Z,10.73
2017-09-20T16:26:14.691Z,10.77
2017-09-20T16:28:42.284Z,10.20
2017-09-20T16:31:09.873Z,9.63
2017-09-20T16:33:38.240Z,8.50
2017-09-20T16:36:06.649Z,11.27
2017-09-20T16:38:34.224Z,11.70
2017-09-20T16:41:01.867Z,12.43
2017-09-20T16:43:29.465Z,11.37
2017-09-20T16:45:57.099Z,11.83
2017-09-20T16:48:24.668Z,11.50
2017-09-20T16:50:52.268Z,12.50
2017-09-20T16:53:20.620Z,12.10
2017-09-20T16:55:48.214Z,13.03
2017-09-20T16:58:16.595Z,13.50
2017-09-20T17:00:44.999Z,10.77
2017-09-20T17:03:12.583Z,12.53
2017-09-20T17:05:40.171Z,12.63
2017-09-20T17:08:07.748Z,12.43
2017-09-20T17:10:36.112Z,13.03
2017-09-20T17:13:03.710Z,13.33
2017-09-20T17:15:31.336Z,10.80
2017-09-20T17:17:59.693Z,11.63
2017-09-20T17:20:27.312Z,11.70
2017-09-20T17:22:54.931Z,11.97
2017-09-20T17:25:23.268Z,12.87
2017-09-20T17:27:50.885Z,12.70
2017-09-20T17:30:18.562Z,11.80
2017-09-20T17:32:46.132Z,11.40
2017-09-20T17:35:13.764Z,11.70
2017-09-20T17:37:41.351Z,12.13
2017-09-20T17:40:08.954Z,12.20
2017-09-20T17:42:36.600Z,12.47
2017-09-20T17:45:04.313Z,13.60
2017-09-20T17:47:31.904Z,14.30
2017-09-20T17:49:59.467Z,12.83
2017-09-20T17:52:27.096Z,13.03
2017-09-20T17:54:54.678Z,13.50
2017-09-20T17:57:22.317Z,13.57
2017-09-20T17:59:50.007Z,13.43
2017-09-20T18:02:17.588Z,13.40
2017-09-20T18:04:45.469Z,13.10
2017-09-20T18:07:13.819Z,13.30
2017-09-20T18:09:41.429Z,15.27
2017-09-20T18:12:09.011Z,13.27
2017-09-20T18:14:36.613Z,13.10
2017-09-20T18:17:04.183Z,14.37
2017-09-20T18:19:32.603Z,13.40
2017-09-20T18:22:00.224Z,15.43
2017-09-20T18:24:28.585Z,13.43
2017-09-20T18:26:56.194Z,13.30
2017-09-20T18:29:23.800Z,13.50
2017-09-20T18:31:52.913Z,13.53
2017-09-20T18:34:21.253Z,13.73
2017-09-20T18:36:48.864Z,12.73
2017-09-20T18:39:16.573Z,13.10
2017-09-20T18:41:44.144Z,14.10
2017-09-20T18:44:11.861Z,14.37
2017-09-20T18:46:39.458Z,16.37
2017-09-20T18:49:07.077Z,20.73
2017-09-20T18:51:34.660Z,18.47
2017-09-20T18:54:02.260Z,16.57
2017-09-20T18:56:30.015Z,17.30
2017-09-20T18:58:57.585Z,15.33
2017-09-20T19:01:25.979Z,16.13
2017-09-20T19:03:53.576Z,15.97
2017-09-20T19:06:21.160Z,14.80
2017-09-20T19:08:48.777Z,16.17
2017-09-20T19:11:16.459Z,15.20
2017-09-20T19:13:44.107Z,15.10
2017-09-20T19:16:11.689Z,15.50
2017-09-20T19:18:39.285Z,15.10
2017-09-20T19:21:07.639Z,15.70
2017-09-20T19:23:35.351Z,15.33
2017-09-20T19:26:03.011Z,14.57
2017-09-20T19:28:30.674Z,17.27
2017-09-20T19:30:58.456Z,15.57
2017-09-20T19:33:26.032Z,15.60
2017-09-20T19:35:53.656Z,14.70
2017-09-20T19:38:21.306Z,16.30
2017-09-20T19:40:48.916Z,16.33
2017-09-20T19:43:16.545Z,15.47
2017-09-20T19:45:44.298Z,16.23
2017-09-20T19:48:11.893Z,16.00
2017-09-20T19:50:39.459Z,15.37
2017-09-20T19:53:07.149Z,16.60
2017-09-20T19:55:35.503Z,16.50
2017-09-20T19:58:04.624Z,16.90
2017-09-20T20:00:32.226Z,16.83
2017-09-20T20:02:59.836Z,16.10
2017-09-20T20:05:28.180Z,17.37
2017-09-20T20:07:55.780Z,18.57
2017-09-20T20:10:24.125Z,18.30
2017-09-20T20:12:51.799Z,17.97
2017-09-20T20:15:19.439Z,19.10
2017-09-20T20:17:47.062Z,19.20
2017-09-20T20:20:14.677Z,22.27
2017-09-20T20:22:42.272Z,21.27
2017-09-20T20:25:09.858Z,19.90
2017-09-20T20:27:37.477Z,19.97
2017-09-20T20:30:05.065Z,17.60
2017-09-20T20:32:32.666Z,18.60
2017-09-20T20:35:01.743Z,20.13
2017-09-20T20:37:29.367Z,18.60
2017-09-20T20:39:56.960Z,17.80
2017-09-20T20:42:24.572Z,16.70
2017-09-20T20:44:52.163Z,16.90
2017-09-20T20:47:19.739Z,18.07
2017-09-20T20:49:47.372Z,16.83
2017-09-20T20:52:14.943Z,17.80
2017-09-20T20:54:42.524Z,17.47
2017-09-20T20:57:10.907Z,20.27
2017-09-20T20:59:38.469Z,20.50
2017-09-20T21:02:07.583Z,20.10
2017-09-20T21:04:35.912Z,19.00
2017-09-20T21:07:03.606Z,17.77
2017-09-20T21:09:31.973Z,18.03
2017-09-20T21:11:59.543Z,17.90
2017-09-20T21:14:27.153Z,18.63
2017-09-20T21:16:54.720Z,18.30
2017-09-20T21:19:22.329Z,18.93
2017-09-20T21:21:50.746Z,16.97
2017-09-20T21:24:18.314Z,17.83
2017-09-20T21:26:45.952Z,17.70
2017-09-20T21:29:13.532Z,21.30
2017-09-20T21:31:41.148Z,20.90
2017-09-20T21:34:09.488Z,17.80
2017-09-20T21:36:37.075Z,18.37
2017-09-20T21:39:05.459Z,19.73
2017-09-20T21:41:33.799Z,18.17
2017-09-20T21:44:01.418Z,17.73
2017-09-20T21:46:29.008Z,19.10
2017-09-20T21:48:56.800Z,18.80
2017-09-20T21:51:25.876Z,19.60
2017-09-20T21:53:53.456Z,18.63
2017-09-20T21:56:21.827Z,17.80
2017-09-20T21:58:49.402Z,18.87
2017-09-20T22:01:17.783Z,18.93
2017-09-20T22:03:46.112Z,19.40
2017-09-20T22:06:13.731Z,19.00
2017-09-20T22:08:41.304Z,18.43
2017-09-20T22:11:08.887Z,18.50
2017-09-20T22:13:36.500Z,19.97
2017-09-20T22:16:17.026Z,18.67
2017-09-20T22:18:56.619Z,21.33
2017-09-20T22:21:36.135Z,19.50
2017-09-20T22:24:16.251Z,20.67
2017-09-20T22:26:44.111Z,20.73
2017-09-20T22:29:11.687Z,21.13
2017-09-20T22:31:39.280Z,24.50
2017-09-20T22:34:06.847Z,22.93
2017-09-20T22:36:34.455Z,23.43
2017-09-20T22:39:02.080Z,23.23
2017-09-20T22:41:29.655Z,26.43
2017-09-20T22:43:57.244Z,25.13
2017-09-20T22:46:26.321Z,26.50
2017-09-20T22:48:53.944Z,24.80
2017-09-20T22:51:21.522Z,25.10
2017-09-20T22:53:49.094Z,26.43
2017-09-20T22:56:16.687Z,26.43
2017-09-20T22:58:45.096Z,26.03
2017-09-20T23:01:12.859Z,26.17
2017-09-20T23:03:40.431Z,28.43
2017-09-20T23:06:08.028Z,25.80
2017-09-20T23:08:35.624Z,26.73
2017-09-20T23:11:03.947Z,27.67
2017-09-20T23:13:31.561Z,25.57
2017-09-20T23:15:59.238Z,27.43
2017-09-20T23:18:26.816Z,25.83
2017-09-20T23:20:54.438Z,23.40
2017-09-20T23:23:22.775Z,24.70
2017-09-20T23:25:50.354Z,23.90
2017-09-20T23:28:18.819Z,24.80
2017-09-20T23:30:46.425Z,24.30
2017-09-20T23:33:13.995Z,25.23
2017-09-20T23:35:41.560Z,26.00
2017-09-20T23:38:09.163Z,26.90
2017-09-20T23:40:36.726Z,26.37
2017-09-20T23:43:05.147Z,28.80
2017-09-20T23:45:32.722Z,26.43
2017-09-20T23:48:00.336Z,26.40
2017-09-20T23:50:28.691Z,27.03
2017-09-20T23:52:56.339Z,31.30
2017-09-20T23:55:23.939Z,26.47
2017-09-20T23:57:52.271Z,27.03
